DAUO

Guemar Airport

Guemar, Algeria
METAR DAUO 231400Z 07005KT CAVOK 33/10 Q1016
Observed Flight Rules
May-23 @ 14:00 UTC (an hour ago) Visual Flight Rules
Wind Visibility Clouds
70° at 5 knots 10,000+ meters
  • Clear skies
Temperatures Readings
Current 33°C / 91°F
Dewpoint 10°C / 50°F
Humidity 24%
Altimeter 30" Hg
Pressure 1016 hPa
Elevation 63
METAR DAUO 231400Z 07005KT CAVOK 33/10 Q1016
Observed Flight Rules
May-23 @ 14:00 UTC
(an hour ago)
VFR
Wind Visibility
70° at 5 knots 10,000+ meters
Clouds
  • Clear skies
Temperature Dewpoint
33°C / 91°F 10°C / 50°F
Humidity Altimeter Pressure
24% 30" Hg 1016 hPa